Marysville, OH

12:01 AM EDT on July 22, 2017 (GMT -0400)
Marysville

Weather History for KMRT - December, 2013

Change the Weather History Date:

Monday, December 23, 2013

  Actual Average (KDLZ) Record (KDLZ)
Temperature  
Mean Temperature 31 °F -  
Max Temperature 36 °F 37 °F 60 °F (2015)
Min Temperature 25 °F 20 °F -27 °F (1989)
Degree Days  
Heating Degree Days 34    
Moisture  
Dew Point 24 °F    
Average Humidity 74    
Maximum Humidity 89    
Minimum Humidity 64    
Precipitation  
Precipitation 0.00 in - - ()
Sea Level Pressure  
Sea Level Pressure 30.23 in    
Wind  
Wind Speed 11 mph (WNW)    
Max Wind Speed 16 mph    
Max Gust Speed 23 mph    
Visibility 10 miles    
Events      
Averages and records for this station are not official NWS values.
T = Trace of Precipitation, MM = Missing Value Source: NWS Daily Summary

Daily Weather History Graph

Daily Weather History Graph

Search for Another Location

Airport or City:

Trip Planner

Search our weather history database for the weather conditions in past years. The results will help you decide how hot, cold, wet, or windy it might be!

Date:

Astronomy

Dec. 23, 2013 Rise Set
Actual Time 7:53 AM EST 5:11 PM EST
Civil Twilight 7:22 AM EST 5:42 PM EST
Nautical Twilight 6:48 AM EST 6:16 PM EST
Astronomical Twilight 6:15 AM EST 6:49 PM EST
Moon 11:21 PM EST (12/23) 11:17 AM EST (12/23)
Length of Visible Light 10h 19m
Length of Day
9h 18m
Waning Gibbous, 68% of the Moon is Illuminated
Dec 23
Waning Gibbous
Dec 25
Last Quarter
Jan 1
New
Jan 7
First Quarter
Jan 15
Full

Hourly Weather History & Observations

Time (EST) Temp. Windchill Dew Point Humidity Pressure Visibility Wind Dir Wind Speed Gust Speed Precip Events Conditions
12:14 AM 37.6 °F 30.0 °F 34.0 °F 87% 30.01 in 10.0 mi WNW 11.5 mph - N/A   Overcast
12:34 AM 37.4 °F 31.4 °F 33.1 °F 84% 30.02 in 10.0 mi West 8.1 mph - N/A   Overcast
12:55 AM 36.9 °F 30.7 °F 32.9 °F 86% 30.02 in 10.0 mi WNW 8.1 mph - N/A   Overcast
1:14 AM 36.3 °F 29.5 °F 32.5 °F 86% 30.03 in 10.0 mi NW 9.2 mph - N/A   Overcast
1:34 AM 35.6 °F 28.6 °F 32.0 °F 87% 30.03 in 10.0 mi WNW 9.2 mph - N/A   Overcast
1:54 AM 34.9 °F 28.3 °F 31.8 °F 89% 30.04 in 10.0 mi West 8.1 mph 16.1 mph N/A   Overcast
2:14 AM 35.6 °F 29.9 °F 32.0 °F 87% 30.05 in 10.0 mi West 6.9 mph - N/A   Overcast
2:35 AM 35.6 °F 29.2 °F 32.0 °F 87% 30.05 in 10.0 mi WNW 8.1 mph - N/A   Overcast
2:54 AM 35.2 °F 28.8 °F 31.8 °F 87% 30.06 in 10.0 mi West 8.1 mph - N/A   Overcast
3:14 AM 35.1 °F 26.4 °F 31.3 °F 86% 30.07 in 10.0 mi WNW 12.7 mph - N/A   Overcast
3:35 AM 34.7 °F 25.5 °F 30.7 °F 85% 30.08 in 10.0 mi WNW 13.8 mph - N/A   Overcast
3:54 AM 34.2 °F 25.2 °F 30.2 °F 85% 30.08 in 10.0 mi WNW 12.7 mph - N/A   Overcast
4:14 AM 34.0 °F 27.2 °F 30.2 °F 86% 30.08 in 10.0 mi WNW 8.1 mph - N/A   Overcast
4:35 AM 33.4 °F 23.1 °F 28.4 °F 82% 30.09 in 10.0 mi NW 16.1 mph - N/A   Overcast
4:54 AM 33.1 °F 22.6 °F 28.2 °F 82% 30.10 in 10.0 mi WNW 16.1 mph - N/A   Overcast
5:14 AM 32.9 °F 24.1 °F 27.5 °F 81% 30.10 in 10.0 mi WNW 11.5 mph 18.4 mph N/A   Overcast
5:35 AM 32.7 °F 23.4 °F 26.4 °F 78% 30.10 in 10.0 mi WNW 12.7 mph - N/A   Overcast
5:54 AM 32.5 °F 21.9 °F 26.4 °F 78% 30.11 in 10.0 mi WNW 16.1 mph - N/A   Overcast
6:14 AM 32.0 °F 22.1 °F 25.7 °F 78% 30.11 in 10.0 mi West 13.8 mph - N/A   Overcast
6:32 AM 32.0 °F 23.6 °F 25.5 °F 77% 30.12 in 10.0 mi WNW 10.4 mph - N/A   Overcast
6:54 AM 32.0 °F 22.5 °F 25.3 °F 76% 30.13 in 10.0 mi WNW 12.7 mph 18.4 mph N/A   Overcast
7:15 AM 32.0 °F 23.0 °F 25.7 °F 78% 30.15 in 10.0 mi NW 11.5 mph - N/A   Overcast
7:34 AM 32.0 °F 23.0 °F 25.9 °F 78% 30.17 in 10.0 mi WNW 11.5 mph - N/A   Overcast
7:54 AM 32.0 °F 22.5 °F 26.1 °F 79% 30.19 in 10.0 mi WNW 12.7 mph 18.4 mph N/A   Overcast
8:15 AM 32.0 °F 22.5 °F 25.3 °F 76% 30.20 in 10.0 mi WNW 12.7 mph - N/A   Overcast
8:34 AM 31.6 °F 22.6 °F 24.1 °F 74% 30.21 in 10.0 mi WNW 11.5 mph 20.7 mph N/A   Overcast
8:54 AM 31.6 °F 20.7 °F 22.6 °F 69% 30.22 in 10.0 mi WNW 16.1 mph 20.7 mph N/A   Overcast
9:15 AM 31.5 °F 20.9 °F 21.6 °F 67% 30.23 in 10.0 mi NW 15.0 mph 20.7 mph N/A   Overcast
9:34 AM 31.5 °F 20.9 °F 21.7 °F 67% 30.24 in 10.0 mi WNW 15.0 mph 23.0 mph N/A   Overcast
9:55 AM 31.5 °F 20.5 °F 22.1 °F 68% 30.25 in 10.0 mi NW 16.1 mph 19.6 mph N/A   Overcast
10:14 AM 31.6 °F 21.6 °F 21.6 °F 66% 30.26 in 10.0 mi WNW 13.8 mph - N/A   Overcast
10:34 AM 31.1 °F 21.4 °F 21.4 °F 67% 30.27 in 10.0 mi NW 12.7 mph 18.4 mph N/A   Overcast
10:55 AM 31.5 °F 22.3 °F 22.5 °F 69% 30.28 in 10.0 mi NW 11.5 mph 16.1 mph N/A   Overcast
11:14 AM 31.5 °F 22.3 °F 23.0 °F 71% 30.28 in 10.0 mi WNW 11.5 mph 17.3 mph N/A   Overcast
11:34 AM 31.1 °F 21.9 °F 23.5 °F 74% 30.28 in 10.0 mi NW 11.5 mph 20.7 mph N/A   Overcast
11:55 AM 31.1 °F 21.4 °F 23.9 °F 75% 30.28 in 10.0 mi WNW 12.7 mph - N/A   Overcast
12:14 PM 31.1 °F 20.5 °F 22.8 °F 71% 30.28 in 10.0 mi WNW 15.0 mph - N/A   Overcast
12:34 PM 31.1 °F 21.9 °F 23.4 °F 73% 30.28 in 10.0 mi WNW 11.5 mph - N/A   Overcast
12:55 PM 31.1 °F 22.4 °F 22.6 °F 71% 30.28 in 10.0 mi WNW 10.4 mph - N/A   Overcast
1:14 PM 31.1 °F 21.9 °F 22.8 °F 71% 30.28 in 10.0 mi West 11.5 mph 17.3 mph N/A   Overcast
1:34 PM 31.3 °F 21.1 °F 21.2 °F 66% 30.28 in 10.0 mi WNW 13.8 mph - N/A   Overcast
1:55 PM 31.6 °F 22.1 °F 21.6 °F 66% 30.29 in 10.0 mi West 12.7 mph - N/A   Overcast
2:14 PM 31.6 °F 22.6 °F 21.4 °F 66% 30.29 in 10.0 mi West 11.5 mph - N/A   Overcast
2:34 PM 31.5 °F 21.8 °F 20.7 °F 64% 30.29 in 10.0 mi WNW 12.7 mph - N/A   Overcast
2:55 PM 31.1 °F 22.4 °F 20.7 °F 65% 30.29 in 10.0 mi WNW 10.4 mph - N/A   Overcast
3:14 PM 30.9 °F 22.2 °F 20.8 °F 66% 30.29 in 10.0 mi West 10.4 mph - N/A   Overcast
3:34 PM 30.7 °F 24.1 °F 20.7 °F 66% 30.30 in 10.0 mi WNW 6.9 mph - N/A   Overcast
3:55 PM 30.2 °F 23.4 °F 20.1 °F 66% 30.30 in 10.0 mi WNW 6.9 mph - N/A   Overcast
4:14 PM 30.2 °F 21.3 °F 21.4 °F 70% 30.30 in 10.0 mi West 10.4 mph 16.1 mph N/A   Overcast
4:34 PM 29.8 °F 21.5 °F 21.2 °F 70% 30.31 in 10.0 mi WNW 9.2 mph - N/A   Overcast
4:54 PM 29.7 °F 20.1 °F 21.2 °F 71% 30.32 in 10.0 mi West 11.5 mph 16.1 mph N/A   Overcast
5:15 PM 29.1 °F 20.6 °F 20.1 °F 69% 30.31 in 10.0 mi WNW 9.2 mph - N/A   Overcast
5:34 PM 28.9 °F 20.4 °F 20.5 °F 71% 30.32 in 10.0 mi West 9.2 mph - N/A   Overcast
5:54 PM 29.3 °F 21.5 °F 21.6 °F 73% 30.32 in 10.0 mi West 8.1 mph - N/A   Overcast
6:15 PM 28.6 °F 18.7 °F 19.9 °F 70% 30.32 in 10.0 mi WNW 11.5 mph - N/A   Overcast
6:34 PM 28.2 °F 18.9 °F 19.2 °F 69% 30.33 in 10.0 mi WNW 10.4 mph - N/A   Overcast
6:54 PM 28.2 °F 20.2 °F 19.8 °F 71% 30.33 in 10.0 mi West 8.1 mph - N/A   Overcast
7:14 PM 28.2 °F 19.5 °F 19.6 °F 70% 30.33 in 10.0 mi WNW 9.2 mph - N/A   Overcast
7:34 PM 28.0 °F 19.3 °F 19.4 °F 70% 30.33 in 10.0 mi West 9.2 mph - N/A   Overcast
7:55 PM 27.7 °F 18.2 °F 19.2 °F 71% 30.33 in 10.0 mi West 10.4 mph - N/A   Overcast
8:14 PM 27.9 °F 18.4 °F 19.2 °F 70% 30.33 in 10.0 mi West 10.4 mph - N/A   Overcast
8:35 PM 27.3 °F 17.1 °F 19.8 °F 73% 30.33 in 10.0 mi WNW 11.5 mph 20.7 mph N/A   Overcast
8:55 PM 26.6 °F 17.5 °F 18.3 °F 71% 30.33 in 10.0 mi NW 9.2 mph - N/A   Overcast
9:14 PM 26.4 °F 18.0 °F 17.6 °F 69% 30.32 in 10.0 mi WNW 8.1 mph - N/A   Overcast
9:34 PM 26.6 °F 17.5 °F 17.6 °F 69% 30.32 in 10.0 mi NW 9.2 mph - N/A   Overcast
9:55 PM 26.6 °F 18.2 °F 18.9 °F 73% 30.33 in 10.0 mi WNW 8.1 mph - N/A   Overcast
10:14 PM 26.6 °F 17.5 °F 18.5 °F 71% 30.33 in 10.0 mi West 9.2 mph - N/A   Overcast
10:35 PM 26.2 °F 14.7 °F 17.6 °F 70% 30.33 in 10.0 mi WNW 13.8 mph - N/A   Overcast
10:54 PM 26.1 °F 15.6 °F 16.2 °F 66% 30.33 in 10.0 mi WNW 11.5 mph - N/A   Overcast
11:14 PM 25.7 °F 15.7 °F 16.9 °F 69% 30.32 in 10.0 mi WNW 10.4 mph 16.1 mph N/A   Overcast
11:35 PM 26.1 °F 16.8 °F 17.8 °F 71% 30.32 in 10.0 mi WNW 9.2 mph - N/A   Overcast
11:54 PM 25.9 °F 14.8 °F 17.2 °F 70% 30.32 in 10.0 mi WNW 12.7 mph - N/A   Overcast